sensor_id;sensor_type;location;lat;lon;timestamp;P1;durP1;ratioP1;P2;durP2;ratioP2
11398;SDS011;5755;48.116;11.608;2022-11-20T00:01:13;2.67;;;2.03;;
11398;SDS011;5755;48.116;11.608;2022-11-20T00:03:42;2.63;;;2.10;;
11398;SDS011;5755;48.116;11.608;2022-11-20T00:06:12;3.08;;;2.10;;
11398;SDS011;5755;48.116;11.608;2022-11-20T00:08:40;2.40;;;2.00;;
11398;SDS011;5755;48.116;11.608;2022-11-20T00:11:08;2.40;;;2.20;;
11398;SDS011;5755;48.116;11.608;2022-11-20T00:13:36;2.33;;;2.10;;
11398;SDS011;5755;48.116;11.608;2022-11-20T00:16:04;3.20;;;2.33;;
11398;SDS011;5755;48.116;11.608;2022-11-20T00:18:33;2.47;;;2.13;;
11398;SDS011;5755;48.116;11.608;2022-11-20T00:21:01;2.45;;;2.17;;
11398;SDS011;5755;48.116;11.608;2022-11-20T00:23:32;2.67;;;2.30;;
11398;SDS011;5755;48.116;11.608;2022-11-20T00:26:01;2.33;;;2.13;;
11398;SDS011;5755;48.116;11.608;2022-11-20T00:28:28;5.22;;;2.70;;
11398;SDS011;5755;48.116;11.608;2022-11-20T00:30:59;2.63;;;2.13;;
11398;SDS011;5755;48.116;11.608;2022-11-20T00:33:27;4.28;;;2.35;;
11398;SDS011;5755;48.116;11.608;2022-11-20T00:36:01;3.10;;;2.22;;
11398;SDS011;5755;48.116;11.608;2022-11-20T00:38:28;5.72;;;2.35;;
11398;SDS011;5755;48.116;11.608;2022-11-20T00:40:58;3.15;;;2.30;;
11398;SDS011;5755;48.116;11.608;2022-11-20T00:43:27;2.90;;;2.60;;
11398;SDS011;5755;48.116;11.608;2022-11-20T00:45:57;4.45;;;2.40;;
11398;SDS011;5755;48.116;11.608;2022-11-20T00:48:24;2.92;;;2.45;;
11398;SDS011;5755;48.116;11.608;2022-11-20T00:50:52;3.38;;;2.28;;
11398;SDS011;5755;48.116;11.608;2022-11-20T00:53:25;3.25;;;2.55;;
11398;SDS011;5755;48.116;11.608;2022-11-20T00:55:52;4.57;;;2.60;;
11398;SDS011;5755;48.116;11.608;2022-11-20T00:58:22;5.38;;;2.80;;
11398;SDS011;5755;48.116;11.608;2022-11-20T01:00:59;3.08;;;2.53;;
11398;SDS011;5755;48.116;11.608;2022-11-20T01:03:27;3.70;;;2.30;;
11398;SDS011;5755;48.116;11.608;2022-11-20T01:08:59;2.50;;;2.30;;
11398;SDS011;5755;48.116;11.608;2022-11-20T01:11:28;2.90;;;2.22;;
11398;SDS011;5755;48.116;11.608;2022-11-20T01:13:58;2.83;;;2.30;;
11398;SDS011;5755;48.116;11.608;2022-11-20T01:16:31;2.35;;;2.10;;
11398;SDS011;5755;48.116;11.608;2022-11-20T01:19:00;2.53;;;2.30;;
11398;SDS011;5755;48.116;11.608;2022-11-20T01:21:29;2.95;;;2.30;;
11398;SDS011;5755;48.116;11.608;2022-11-20T01:23:57;2.95;;;2.25;;
11398;SDS011;5755;48.116;11.608;2022-11-20T01:26:26;4.53;;;2.17;;
11398;SDS011;5755;48.116;11.608;2022-11-20T01:28:55;2.30;;;2.10;;
11398;SDS011;5755;48.116;11.608;2022-11-20T01:31:26;4.72;;;2.33;;
11398;SDS011;5755;48.116;11.608;2022-11-20T01:33:55;2.65;;;2.30;;
11398;SDS011;5755;48.116;11.608;2022-11-20T01:36:23;2.90;;;2.20;;
11398;SDS011;5755;48.116;11.608;2022-11-20T01:38:52;2.42;;;2.22;;
11398;SDS011;5755;48.116;11.608;2022-11-20T01:41:19;2.70;;;2.15;;
11398;SDS011;5755;48.116;11.608;2022-11-20T01:44:04;2.40;;;2.20;;
11398;SDS011;5755;48.116;11.608;2022-11-20T01:46:38;3.05;;;1.88;;
11398;SDS011;5755;48.116;11.608;2022-11-20T01:49:09;2.25;;;2.05;;
11398;SDS011;5755;48.116;11.608;2022-11-20T01:51:44;2.80;;;2.13;;
11398;SDS011;5755;48.116;11.608;2022-11-20T01:54:19;2.22;;;2.03;;
11398;SDS011;5755;48.116;11.608;2022-11-20T01:56:51;2.63;;;2.00;;
11398;SDS011;5755;48.116;11.608;2022-11-20T01:59:24;2.70;;;1.80;;
11398;SDS011;5755;48.116;11.608;2022-11-20T02:01:55;2.25;;;2.00;;
11398;SDS011;5755;48.116;11.608;2022-11-20T02:04:23;2.72;;;2.10;;
11398;SDS011;5755;48.116;11.608;2022-11-20T02:06:51;2.35;;;2.15;;
11398;SDS011;5755;48.116;11.608;2022-11-20T02:09:30;2.60;;;2.28;;
11398;SDS011;5755;48.116;11.608;2022-11-20T02:12:00;2.45;;;2.22;;
11398;SDS011;5755;48.116;11.608;2022-11-20T02:14:36;4.22;;;2.10;;
11398;SDS011;5755;48.116;11.608;2022-11-20T02:17:04;3.05;;;2.60;;
11398;SDS011;5755;48.116;11.608;2022-11-20T02:19:31;2.70;;;2.20;;
11398;SDS011;5755;48.116;11.608;2022-11-20T02:22:00;4.15;;;2.28;;
11398;SDS011;5755;48.116;11.608;2022-11-20T02:24:33;4.38;;;2.63;;
11398;SDS011;5755;48.116;11.608;2022-11-20T02:27:14;3.15;;;2.25;;
11398;SDS011;5755;48.116;11.608;2022-11-20T02:29:44;4.18;;;2.35;;
11398;SDS011;5755;48.116;11.608;2022-11-20T02:32:17;2.85;;;2.10;;
11398;SDS011;5755;48.116;11.608;2022-11-20T02:34:45;3.25;;;2.40;;
11398;SDS011;5755;48.116;11.608;2022-11-20T02:37:12;2.78;;;2.30;;
11398;SDS011;5755;48.116;11.608;2022-11-20T02:39:41;3.78;;;2.40;;
11398;SDS011;5755;48.116;11.608;2022-11-20T02:42:09;3.33;;;2.47;;
11398;SDS011;5755;48.116;11.608;2022-11-20T02:44:36;2.60;;;2.30;;
11398;SDS011;5755;48.116;11.608;2022-11-20T02:47:03;3.33;;;2.60;;
11398;SDS011;5755;48.116;11.608;2022-11-20T02:49:30;3.08;;;2.30;;
11398;SDS011;5755;48.116;11.608;2022-11-20T02:51:57;2.33;;;2.13;;
11398;SDS011;5755;48.116;11.608;2022-11-20T02:54:24;2.53;;;2.20;;
11398;SDS011;5755;48.116;11.608;2022-11-20T02:56:53;3.63;;;2.33;;
11398;SDS011;5755;48.116;11.608;2022-11-20T02:59:19;2.50;;;2.20;;
11398;SDS011;5755;48.116;11.608;2022-11-20T03:01:46;2.67;;;2.33;;
11398;SDS011;5755;48.116;11.608;2022-11-20T03:04:13;2.83;;;2.30;;
11398;SDS011;5755;48.116;11.608;2022-11-20T03:06:40;4.07;;;2.50;;
11398;SDS011;5755;48.116;11.608;2022-11-20T03:09:07;2.90;;;2.30;;
11398;SDS011;5755;48.116;11.608;2022-11-20T03:11:34;3.28;;;2.30;;
11398;SDS011;5755;48.116;11.608;2022-11-20T03:14:03;2.90;;;2.40;;
11398;SDS011;5755;48.116;11.608;2022-11-20T03:16:30;2.65;;;2.38;;
11398;SDS011;5755;48.116;11.608;2022-11-20T03:19:00;2.97;;;2.50;;
11398;SDS011;5755;48.116;11.608;2022-11-20T03:21:27;3.42;;;2.53;;
11398;SDS011;5755;48.116;11.608;2022-11-20T03:23:54;4.47;;;2.50;;
11398;SDS011;5755;48.116;11.608;2022-11-20T03:26:22;2.95;;;2.65;;
11398;SDS011;5755;48.116;11.608;2022-11-20T03:28:50;3.35;;;2.60;;
11398;SDS011;5755;48.116;11.608;2022-11-20T03:31:20;4.97;;;2.58;;
11398;SDS011;5755;48.116;11.608;2022-11-20T03:33:48;2.85;;;2.58;;
11398;SDS011;5755;48.116;11.608;2022-11-20T03:36:16;2.75;;;2.40;;
11398;SDS011;5755;48.116;11.608;2022-11-20T03:38:49;3.08;;;2.63;;
11398;SDS011;5755;48.116;11.608;2022-11-20T03:41:19;2.80;;;2.50;;
11398;SDS011;5755;48.116;11.608;2022-11-20T03:43:47;2.88;;;2.38;;
11398;SDS011;5755;48.116;11.608;2022-11-20T03:46:15;5.10;;;2.80;;
11398;SDS011;5755;48.116;11.608;2022-11-20T03:48:44;3.72;;;2.60;;
11398;SDS011;5755;48.116;11.608;2022-11-20T03:51:11;2.90;;;2.60;;
11398;SDS011;5755;48.116;11.608;2022-11-20T03:53:39;3.20;;;2.53;;
11398;SDS011;5755;48.116;11.608;2022-11-20T03:56:07;2.95;;;2.30;;
11398;SDS011;5755;48.116;11.608;2022-11-20T03:58:34;3.95;;;2.60;;
11398;SDS011;5755;48.116;11.608;2022-11-20T04:01:06;3.30;;;2.50;;
11398;SDS011;5755;48.116;11.608;2022-11-20T04:03:35;3.33;;;2.53;;
11398;SDS011;5755;48.116;11.608;2022-11-20T04:06:05;3.83;;;2.83;;
11398;SDS011;5755;48.116;11.608;2022-11-20T04:08:53;2.90;;;2.60;;
11398;SDS011;5755;48.116;11.608;2022-11-20T04:11:22;3.27;;;2.63;;
11398;SDS011;5755;48.116;11.608;2022-11-20T04:13:51;3.90;;;2.53;;
11398;SDS011;5755;48.116;11.608;2022-11-20T04:16:20;3.63;;;2.60;;
11398;SDS011;5755;48.116;11.608;2022-11-20T04:18:51;3.70;;;2.65;;
11398;SDS011;5755;48.116;11.608;2022-11-20T04:21:20;3.20;;;2.85;;
11398;SDS011;5755;48.116;11.608;2022-11-20T04:23:48;3.05;;;2.53;;
11398;SDS011;5755;48.116;11.608;2022-11-20T04:26:15;3.50;;;2.50;;
11398;SDS011;5755;48.116;11.608;2022-11-20T04:28:42;3.00;;;2.70;;
11398;SDS011;5755;48.116;11.608;2022-11-20T04:31:09;3.50;;;2.58;;
11398;SDS011;5755;48.116;11.608;2022-11-20T04:33:37;3.30;;;2.58;;
11398;SDS011;5755;48.116;11.608;2022-11-20T04:36:05;3.35;;;2.72;;
11398;SDS011;5755;48.116;11.608;2022-11-20T04:38:35;2.53;;;2.30;;
11398;SDS011;5755;48.116;11.608;2022-11-20T04:41:02;2.47;;;2.28;;
11398;SDS011;5755;48.116;11.608;2022-11-20T04:43:31;2.63;;;2.42;;
11398;SDS011;5755;48.116;11.608;2022-11-20T04:46:01;3.10;;;2.60;;
11398;SDS011;5755;48.116;11.608;2022-11-20T04:48:28;3.40;;;2.43;;
11398;SDS011;5755;48.116;11.608;2022-11-20T04:50:55;3.03;;;2.60;;
11398;SDS011;5755;48.116;11.608;2022-11-20T04:53:23;3.30;;;3.00;;
11398;SDS011;5755;48.116;11.608;2022-11-20T04:55:53;2.80;;;2.50;;
11398;SDS011;5755;48.116;11.608;2022-11-20T04:58:26;3.10;;;2.53;;
11398;SDS011;5755;48.116;11.608;2022-11-20T05:00:53;3.00;;;2.55;;
11398;SDS011;5755;48.116;11.608;2022-11-20T05:03:20;3.15;;;2.67;;
11398;SDS011;5755;48.116;11.608;2022-11-20T05:05:47;3.42;;;2.50;;
11398;SDS011;5755;48.116;11.608;2022-11-20T05:08:14;4.82;;;2.67;;
11398;SDS011;5755;48.116;11.608;2022-11-20T05:10:43;4.03;;;2.65;;
11398;SDS011;5755;48.116;11.608;2022-11-20T05:13:11;3.78;;;2.88;;
11398;SDS011;5755;48.116;11.608;2022-11-20T05:15:38;3.33;;;2.90;;
11398;SDS011;5755;48.116;11.608;2022-11-20T05:18:05;2.78;;;2.53;;
11398;SDS011;5755;48.116;11.608;2022-11-20T05:20:32;3.13;;;2.90;;
11398;SDS011;5755;48.116;11.608;2022-11-20T05:23:01;3.40;;;2.65;;
11398;SDS011;5755;48.116;11.608;2022-11-20T05:25:28;3.50;;;2.75;;
11398;SDS011;5755;48.116;11.608;2022-11-20T05:27:55;4.23;;;3.00;;
11398;SDS011;5755;48.116;11.608;2022-11-20T05:30:23;3.88;;;2.78;;
11398;SDS011;5755;48.116;11.608;2022-11-20T05:33:04;5.13;;;3.00;;
11398;SDS011;5755;48.116;11.608;2022-11-20T05:35:31;4.15;;;2.70;;
11398;SDS011;5755;48.116;11.608;2022-11-20T05:37:58;2.70;;;2.50;;
11398;SDS011;5755;48.116;11.608;2022-11-20T05:40:25;4.97;;;3.00;;
11398;SDS011;5755;48.116;11.608;2022-11-20T05:42:52;3.20;;;2.70;;
11398;SDS011;5755;48.116;11.608;2022-11-20T05:45:18;3.10;;;2.80;;
11398;SDS011;5755;48.116;11.608;2022-11-20T05:47:47;4.43;;;3.03;;
11398;SDS011;5755;48.116;11.608;2022-11-20T05:50:14;3.47;;;2.70;;
11398;SDS011;5755;48.116;11.608;2022-11-20T05:52:41;4.30;;;2.80;;
11398;SDS011;5755;48.116;11.608;2022-11-20T05:55:08;3.67;;;2.90;;
11398;SDS011;5755;48.116;11.608;2022-11-20T05:57:35;2.70;;;2.50;;
11398;SDS011;5755;48.116;11.608;2022-11-20T06:00:03;2.90;;;2.60;;
11398;SDS011;5755;48.116;11.608;2022-11-20T06:02:31;2.70;;;2.50;;
11398;SDS011;5755;48.116;11.608;2022-11-20T06:05:02;2.95;;;2.70;;
11398;SDS011;5755;48.116;11.608;2022-11-20T06:07:29;4.40;;;2.80;;
11398;SDS011;5755;48.116;11.608;2022-11-20T06:09:56;2.63;;;2.37;;
11398;SDS011;5755;48.116;11.608;2022-11-20T06:12:23;4.37;;;2.47;;
11398;SDS011;5755;48.116;11.608;2022-11-20T06:14:50;3.20;;;2.20;;
11398;SDS011;5755;48.116;11.608;2022-11-20T06:17:17;2.97;;;2.67;;
11398;SDS011;5755;48.116;11.608;2022-11-20T06:19:44;3.53;;;2.60;;
11398;SDS011;5755;48.116;11.608;2022-11-20T06:22:12;2.40;;;2.20;;
11398;SDS011;5755;48.116;11.608;2022-11-20T06:24:39;2.50;;;2.27;;
11398;SDS011;5755;48.116;11.608;2022-11-20T06:27:06;4.17;;;2.60;;
11398;SDS011;5755;48.116;11.608;2022-11-20T06:29:33;2.37;;;2.17;;
11398;SDS011;5755;48.116;11.608;2022-11-20T06:32:00;2.97;;;2.40;;
11398;SDS011;5755;48.116;11.608;2022-11-20T06:34:27;2.87;;;2.27;;
11398;SDS011;5755;48.116;11.608;2022-11-20T06:36:54;2.20;;;2.00;;
11398;SDS011;5755;48.116;11.608;2022-11-20T06:39:25;3.07;;;2.17;;
11398;SDS011;5755;48.116;11.608;2022-11-20T06:41:55;2.90;;;2.50;;
11398;SDS011;5755;48.116;11.608;2022-11-20T06:44:22;2.30;;;1.93;;
11398;SDS011;5755;48.116;11.608;2022-11-20T06:46:49;5.37;;;2.37;;
11398;SDS011;5755;48.116;11.608;2022-11-20T06:49:16;1.90;;;1.80;;
11398;SDS011;5755;48.116;11.608;2022-11-20T06:51:43;2.80;;;2.00;;
11398;SDS011;5755;48.116;11.608;2022-11-20T06:54:09;1.73;;;1.63;;
11398;SDS011;5755;48.116;11.608;2022-11-20T06:56:38;4.67;;;2.00;;
11398;SDS011;5755;48.116;11.608;2022-11-20T06:59:05;1.93;;;1.70;;
11398;SDS011;5755;48.116;11.608;2022-11-20T07:01:32;2.10;;;1.77;;
11398;SDS011;5755;48.116;11.608;2022-11-20T07:04:00;1.87;;;1.70;;
11398;SDS011;5755;48.116;11.608;2022-11-20T07:06:27;2.35;;;2.00;;
11398;SDS011;5755;48.116;11.608;2022-11-20T07:08:53;2.17;;;1.90;;
11398;SDS011;5755;48.116;11.608;2022-11-20T07:11:20;3.10;;;2.00;;
11398;SDS011;5755;48.116;11.608;2022-11-20T07:13:49;2.10;;;1.90;;
11398;SDS011;5755;48.116;11.608;2022-11-20T07:16:17;2.43;;;2.20;;
11398;SDS011;5755;48.116;11.608;2022-11-20T07:18:44;2.30;;;2.10;;
11398;SDS011;5755;48.116;11.608;2022-11-20T07:21:10;2.92;;;2.10;;
11398;SDS011;5755;48.116;11.608;2022-11-20T07:23:37;2.60;;;2.40;;
11398;SDS011;5755;48.116;11.608;2022-11-20T07:26:04;2.80;;;2.50;;
11398;SDS011;5755;48.116;11.608;2022-11-20T07:28:32;3.77;;;2.47;;
11398;SDS011;5755;48.116;11.608;2022-11-20T07:31:01;3.33;;;3.03;;
11398;SDS011;5755;48.116;11.608;2022-11-20T07:33:31;3.03;;;2.77;;
11398;SDS011;5755;48.116;11.608;2022-11-20T07:35:58;3.00;;;2.70;;
11398;SDS011;5755;48.116;11.608;2022-11-20T07:38:25;4.47;;;2.80;;
11398;SDS011;5755;48.116;11.608;2022-11-20T07:40:53;2.95;;;2.63;;
11398;SDS011;5755;48.116;11.608;2022-11-20T07:43:21;3.70;;;2.67;;
11398;SDS011;5755;48.116;11.608;2022-11-20T07:45:48;4.65;;;2.60;;
11398;SDS011;5755;48.116;11.608;2022-11-20T07:48:16;3.85;;;2.42;;
11398;SDS011;5755;48.116;11.608;2022-11-20T07:50:43;3.23;;;2.57;;
11398;SDS011;5755;48.116;11.608;2022-11-20T07:53:16;3.40;;;2.72;;
11398;SDS011;5755;48.116;11.608;2022-11-20T07:55:45;3.03;;;2.33;;
11398;SDS011;5755;48.116;11.608;2022-11-20T07:58:12;2.50;;;2.30;;
11398;SDS011;5755;48.116;11.608;2022-11-20T08:00:40;2.23;;;2.03;;
11398;SDS011;5755;48.116;11.608;2022-11-20T08:03:07;2.77;;;2.30;;
11398;SDS011;5755;48.116;11.608;2022-11-20T08:05:35;3.97;;;2.42;;
11398;SDS011;5755;48.116;11.608;2022-11-20T08:08:03;2.60;;;2.00;;
11398;SDS011;5755;48.116;11.608;2022-11-20T08:13:10;2.87;;;2.00;;
11398;SDS011;5755;48.116;11.608;2022-11-20T08:15:54;4.27;;;2.40;;
11398;SDS011;5755;48.116;11.608;2022-11-20T08:18:31;2.67;;;2.33;;
11398;SDS011;5755;48.116;11.608;2022-11-20T08:21:03;3.05;;;2.10;;
11398;SDS011;5755;48.116;11.608;2022-11-20T08:23:44;4.03;;;2.20;;
11398;SDS011;5755;48.116;11.608;2022-11-20T08:26:11;2.20;;;2.00;;
11398;SDS011;5755;48.116;11.608;2022-11-20T08:28:38;3.45;;;2.28;;
11398;SDS011;5755;48.116;11.608;2022-11-20T08:31:05;3.78;;;2.05;;
11398;SDS011;5755;48.116;11.608;2022-11-20T08:33:37;2.72;;;2.10;;
11398;SDS011;5755;48.116;11.608;2022-11-20T08:36:08;2.40;;;2.20;;
11398;SDS011;5755;48.116;11.608;2022-11-20T08:38:49;2.22;;;2.03;;
11398;SDS011;5755;48.116;11.608;2022-11-20T08:44:31;4.18;;;2.25;;
11398;SDS011;5755;48.116;11.608;2022-11-20T08:47:01;2.55;;;2.30;;
11398;SDS011;5755;48.116;11.608;2022-11-20T08:49:49;2.30;;;2.10;;
11398;SDS011;5755;48.116;11.608;2022-11-20T08:52:18;3.25;;;2.10;;
11398;SDS011;5755;48.116;11.608;2022-11-20T08:54:47;2.15;;;1.95;;
11398;SDS011;5755;48.116;11.608;2022-11-20T08:57:16;2.45;;;2.25;;
11398;SDS011;5755;48.116;11.608;2022-11-20T08:59:43;2.10;;;1.90;;
11398;SDS011;5755;48.116;11.608;2022-11-20T09:02:13;2.13;;;1.92;;
11398;SDS011;5755;48.116;11.608;2022-11-20T09:04:40;2.35;;;2.03;;
11398;SDS011;5755;48.116;11.608;2022-11-20T09:07:26;2.83;;;1.98;;
11398;SDS011;5755;48.116;11.608;2022-11-20T09:09:55;2.25;;;1.90;;
11398;SDS011;5755;48.116;11.608;2022-11-20T09:12:22;2.03;;;1.83;;
11398;SDS011;5755;48.116;11.608;2022-11-20T09:14:49;3.67;;;1.83;;
11398;SDS011;5755;48.116;11.608;2022-11-20T09:17:16;2.08;;;1.80;;
11398;SDS011;5755;48.116;11.608;2022-11-20T09:19:44;3.58;;;2.17;;
11398;SDS011;5755;48.116;11.608;2022-11-20T09:22:11;2.10;;;1.88;;
11398;SDS011;5755;48.116;11.608;2022-11-20T09:24:39;2.17;;;1.98;;
11398;SDS011;5755;48.116;11.608;2022-11-20T09:27:07;1.90;;;1.70;;
11398;SDS011;5755;48.116;11.608;2022-11-20T09:29:34;2.83;;;2.00;;
11398;SDS011;5755;48.116;11.608;2022-11-20T09:32:01;2.25;;;2.05;;
11398;SDS011;5755;48.116;11.608;2022-11-20T09:34:28;3.30;;;1.85;;
11398;SDS011;5755;48.116;11.608;2022-11-20T09:39:44;1.92;;;1.77;;
11398;SDS011;5755;48.116;11.608;2022-11-20T09:42:18;2.42;;;1.77;;
11398;SDS011;5755;48.116;11.608;2022-11-20T09:45:21;2.33;;;1.70;;
11398;SDS011;5755;48.116;11.608;2022-11-20T09:47:59;2.05;;;1.85;;
11398;SDS011;5755;48.116;11.608;2022-11-20T09:50:42;1.85;;;1.58;;
11398;SDS011;5755;48.116;11.608;2022-11-20T09:53:16;3.97;;;1.70;;
11398;SDS011;5755;48.116;11.608;2022-11-20T09:55:51;2.05;;;1.58;;
11398;SDS011;5755;48.116;11.608;2022-11-20T09:58:21;2.28;;;1.70;;
11398;SDS011;5755;48.116;11.608;2022-11-20T10:00:57;1.70;;;1.50;;
11398;SDS011;5755;48.116;11.608;2022-11-20T10:03:32;2.45;;;1.40;;
11398;SDS011;5755;48.116;11.608;2022-11-20T10:06:05;2.08;;;1.65;;
11398;SDS011;5755;48.116;11.608;2022-11-20T10:08:39;2.83;;;1.75;;
11398;SDS011;5755;48.116;11.608;2022-11-20T10:11:13;2.28;;;1.52;;
11398;SDS011;5755;48.116;11.608;2022-11-20T10:13:49;2.45;;;1.60;;
11398;SDS011;5755;48.116;11.608;2022-11-20T10:16:26;1.67;;;1.58;;
11398;SDS011;5755;48.116;11.608;2022-11-20T10:19:10;2.10;;;1.50;;
11398;SDS011;5755;48.116;11.608;2022-11-20T10:21:54;2.05;;;1.70;;
11398;SDS011;5755;48.116;11.608;2022-11-20T10:24:34;1.85;;;1.60;;
11398;SDS011;5755;48.116;11.608;2022-11-20T10:27:15;1.70;;;1.60;;
11398;SDS011;5755;48.116;11.608;2022-11-20T10:30:02;1.98;;;1.77;;
11398;SDS011;5755;48.116;11.608;2022-11-20T10:32:35;2.20;;;1.70;;
11398;SDS011;5755;48.116;11.608;2022-11-20T10:35:34;1.58;;;1.40;;
11398;SDS011;5755;48.116;11.608;2022-11-20T10:38:05;2.50;;;1.73;;
11398;SDS011;5755;48.116;11.608;2022-11-20T10:40:42;4.43;;;1.50;;
11398;SDS011;5755;48.116;11.608;2022-11-20T10:43:13;4.43;;;1.42;;
11398;SDS011;5755;48.116;11.608;2022-11-20T10:45:50;1.73;;;1.50;;
11398;SDS011;5755;48.116;11.608;2022-11-20T10:48:23;1.98;;;1.50;;
11398;SDS011;5755;48.116;11.608;2022-11-20T10:50:57;3.92;;;1.52;;
11398;SDS011;5755;48.116;11.608;2022-11-20T10:53:36;1.73;;;1.40;;
11398;SDS011;5755;48.116;11.608;2022-11-20T10:56:12;2.90;;;1.40;;
11398;SDS011;5755;48.116;11.608;2022-11-20T10:58:48;1.90;;;1.50;;
11398;SDS011;5755;48.116;11.608;2022-11-20T11:01:39;1.60;;;1.50;;
11398;SDS011;5755;48.116;11.608;2022-11-20T11:04:08;1.80;;;1.40;;
11398;SDS011;5755;48.116;11.608;2022-11-20T11:06:49;2.00;;;1.50;;
11398;SDS011;5755;48.116;11.608;2022-11-20T11:09:19;2.42;;;1.48;;
11398;SDS011;5755;48.116;11.608;2022-11-20T11:11:54;1.70;;;1.60;;
11398;SDS011;5755;48.116;11.608;2022-11-20T11:14:22;2.10;;;1.73;;
11398;SDS011;5755;48.116;11.608;2022-11-20T11:17:01;2.60;;;1.48;;
11398;SDS011;5755;48.116;11.608;2022-11-20T11:19:28;1.55;;;1.45;;
11398;SDS011;5755;48.116;11.608;2022-11-20T11:25:01;2.00;;;1.60;;
11398;SDS011;5755;48.116;11.608;2022-11-20T11:27:28;3.65;;;1.35;;
11398;SDS011;5755;48.116;11.608;2022-11-20T11:30:11;1.83;;;1.35;;
11398;SDS011;5755;48.116;11.608;2022-11-20T11:32:49;1.95;;;1.55;;
11398;SDS011;5755;48.116;11.608;2022-11-20T11:35:26;2.60;;;1.52;;
11398;SDS011;5755;48.116;11.608;2022-11-20T11:38:01;1.58;;;1.42;;
11398;SDS011;5755;48.116;11.608;2022-11-20T11:40:31;1.70;;;1.40;;
11398;SDS011;5755;48.116;11.608;2022-11-20T11:43:01;3.05;;;1.95;;
11398;SDS011;5755;48.116;11.608;2022-11-20T11:45:32;2.13;;;1.65;;
11398;SDS011;5755;48.116;11.608;2022-11-20T11:47:58;1.40;;;1.30;;
11398;SDS011;5755;48.116;11.608;2022-11-20T11:50:29;1.83;;;1.50;;
11398;SDS011;5755;48.116;11.608;2022-11-20T11:53:08;1.60;;;1.50;;
11398;SDS011;5755;48.116;11.608;2022-11-20T12:04:53;1.27;;;1.20;;
11398;SDS011;5755;48.116;11.608;2022-11-20T12:07:27;1.50;;;1.40;;
11398;SDS011;5755;48.116;11.608;2022-11-20T12:13:08;1.98;;;1.58;;
11398;SDS011;5755;48.116;11.608;2022-11-20T12:19:01;1.95;;;1.60;;
11398;SDS011;5755;48.116;11.608;2022-11-20T12:21:36;1.85;;;1.67;;
11398;SDS011;5755;48.116;11.608;2022-11-20T12:24:23;2.15;;;1.70;;
11398;SDS011;5755;48.116;11.608;2022-11-20T12:30:19;1.77;;;1.67;;
11398;SDS011;5755;48.116;11.608;2022-11-20T12:35:47;1.52;;;1.42;;
11398;SDS011;5755;48.116;11.608;2022-11-20T12:41:58;2.22;;;2.03;;
11398;SDS011;5755;48.116;11.608;2022-11-20T12:45:02;2.67;;;1.60;;
11398;SDS011;5755;48.116;11.608;2022-11-20T12:47:59;1.55;;;1.45;;
11398;SDS011;5755;48.116;11.608;2022-11-20T12:50:43;2.00;;;1.70;;
11398;SDS011;5755;48.116;11.608;2022-11-20T12:53:25;2.28;;;1.70;;
11398;SDS011;5755;48.116;11.608;2022-11-20T12:55:59;1.70;;;1.60;;
11398;SDS011;5755;48.116;11.608;2022-11-20T12:58:46;2.50;;;1.90;;
11398;SDS011;5755;48.116;11.608;2022-11-20T13:01:29;1.75;;;1.65;;
11398;SDS011;5755;48.116;11.608;2022-11-20T13:04:08;2.10;;;1.90;;
11398;SDS011;5755;48.116;11.608;2022-11-20T13:06:49;1.50;;;1.40;;
11398;SDS011;5755;48.116;11.608;2022-11-20T13:09:19;8.23;;;1.80;;
11398;SDS011;5755;48.116;11.608;2022-11-20T13:11:51;2.22;;;1.98;;
11398;SDS011;5755;48.116;11.608;2022-11-20T13:14:45;2.25;;;1.90;;
11398;SDS011;5755;48.116;11.608;2022-11-20T13:17:20;2.30;;;1.80;;
11398;SDS011;5755;48.116;11.608;2022-11-20T13:19:54;2.35;;;1.50;;
11398;SDS011;5755;48.116;11.608;2022-11-20T13:22:42;1.73;;;1.63;;
11398;SDS011;5755;48.116;11.608;2022-11-20T13:25:10;2.47;;;1.70;;
11398;SDS011;5755;48.116;11.608;2022-11-20T13:27:48;1.65;;;1.55;;
11398;SDS011;5755;48.116;11.608;2022-11-20T13:30:18;2.08;;;1.83;;
11398;SDS011;5755;48.116;11.608;2022-11-20T13:32:53;2.15;;;1.80;;
11398;SDS011;5755;48.116;11.608;2022-11-20T13:45:28;2.03;;;1.73;;
11398;SDS011;5755;48.116;11.608;2022-11-20T13:48:01;2.58;;;1.50;;
11398;SDS011;5755;48.116;11.608;2022-11-20T13:50:38;2.72;;;2.17;;
11398;SDS011;5755;48.116;11.608;2022-11-20T13:53:13;2.10;;;1.90;;
11398;SDS011;5755;48.116;11.608;2022-11-20T13:58:45;2.60;;;2.40;;
11398;SDS011;5755;48.116;11.608;2022-11-20T14:01:23;7.35;;;5.03;;
11398;SDS011;5755;48.116;11.608;2022-11-20T14:06:55;2.42;;;1.70;;
11398;SDS011;5755;48.116;11.608;2022-11-20T14:09:25;2.38;;;1.80;;
11398;SDS011;5755;48.116;11.608;2022-11-20T14:11:54;2.17;;;1.98;;
11398;SDS011;5755;48.116;11.608;2022-11-20T14:14:21;2.47;;;2.00;;
11398;SDS011;5755;48.116;11.608;2022-11-20T14:17:06;2.95;;;2.50;;
11398;SDS011;5755;48.116;11.608;2022-11-20T14:19:34;2.60;;;2.22;;
11398;SDS011;5755;48.116;11.608;2022-11-20T14:22:07;2.60;;;2.40;;
11398;SDS011;5755;48.116;11.608;2022-11-20T14:25:18;2.38;;;2.03;;
11398;SDS011;5755;48.116;11.608;2022-11-20T14:28:01;3.30;;;2.75;;
11398;SDS011;5755;48.116;11.608;2022-11-20T14:30:36;2.92;;;2.72;;
11398;SDS011;5755;48.116;11.608;2022-11-20T14:33:15;2.75;;;2.55;;
11398;SDS011;5755;48.116;11.608;2022-11-20T14:35:44;1.90;;;1.80;;
11398;SDS011;5755;48.116;11.608;2022-11-20T14:38:13;2.95;;;1.88;;
11398;SDS011;5755;48.116;11.608;2022-11-20T14:40:43;2.15;;;1.88;;
11398;SDS011;5755;48.116;11.608;2022-11-20T14:43:21;2.60;;;2.00;;
11398;SDS011;5755;48.116;11.608;2022-11-20T14:45:52;2.53;;;2.10;;
11398;SDS011;5755;48.116;11.608;2022-11-20T14:48:33;2.53;;;2.33;;
11398;SDS011;5755;48.116;11.608;2022-11-20T14:54:09;8.20;;;2.72;;
11398;SDS011;5755;48.116;11.608;2022-11-20T14:56:37;2.17;;;1.77;;
11398;SDS011;5755;48.116;11.608;2022-11-20T14:59:21;2.28;;;1.90;;
11398;SDS011;5755;48.116;11.608;2022-11-20T15:01:54;2.88;;;2.67;;
11398;SDS011;5755;48.116;11.608;2022-11-20T15:04:23;2.13;;;1.92;;
11398;SDS011;5755;48.116;11.608;2022-11-20T15:06:56;2.58;;;2.38;;
11398;SDS011;5755;48.116;11.608;2022-11-20T15:09:25;2.47;;;2.28;;
11398;SDS011;5755;48.116;11.608;2022-11-20T15:11:53;2.45;;;2.25;;
11398;SDS011;5755;48.116;11.608;2022-11-20T15:14:26;1.75;;;1.65;;
11398;SDS011;5755;48.116;11.608;2022-11-20T15:16:54;2.65;;;2.45;;
11398;SDS011;5755;48.116;11.608;2022-11-20T15:19:24;3.58;;;2.55;;
11398;SDS011;5755;48.116;11.608;2022-11-20T15:21:52;2.10;;;1.90;;
11398;SDS011;5755;48.116;11.608;2022-11-20T15:24:20;2.38;;;2.17;;
11398;SDS011;5755;48.116;11.608;2022-11-20T15:26:46;2.40;;;2.17;;
11398;SDS011;5755;48.116;11.608;2022-11-20T15:29:14;3.38;;;3.08;;
11398;SDS011;5755;48.116;11.608;2022-11-20T15:31:43;2.92;;;2.63;;
11398;SDS011;5755;48.116;11.608;2022-11-20T15:34:11;2.58;;;2.38;;
11398;SDS011;5755;48.116;11.608;2022-11-20T15:36:40;2.58;;;2.38;;
11398;SDS011;5755;48.116;11.608;2022-11-20T15:39:08;2.55;;;2.35;;
11398;SDS011;5755;48.116;11.608;2022-11-20T15:41:36;2.65;;;2.45;;
11398;SDS011;5755;48.116;11.608;2022-11-20T15:44:04;3.25;;;2.83;;
11398;SDS011;5755;48.116;11.608;2022-11-20T15:46:31;3.05;;;2.78;;
11398;SDS011;5755;48.116;11.608;2022-11-20T15:49:03;2.90;;;2.67;;
11398;SDS011;5755;48.116;11.608;2022-11-20T15:51:32;3.35;;;3.00;;
11398;SDS011;5755;48.116;11.608;2022-11-20T15:54:07;3.05;;;2.65;;
11398;SDS011;5755;48.116;11.608;2022-11-20T15:56:36;3.40;;;3.10;;
11398;SDS011;5755;48.116;11.608;2022-11-20T15:59:03;3.72;;;3.20;;
11398;SDS011;5755;48.116;11.608;2022-11-20T16:01:30;3.20;;;2.90;;
11398;SDS011;5755;48.116;11.608;2022-11-20T16:03:57;3.17;;;2.72;;
11398;SDS011;5755;48.116;11.608;2022-11-20T16:06:25;6.00;;;4.13;;
11398;SDS011;5755;48.116;11.608;2022-11-20T16:08:52;3.25;;;2.70;;
11398;SDS011;5755;48.116;11.608;2022-11-20T16:11:21;12.77;;;9.10;;